createdAt,value
2023-03-25T00:00:26.450Z,64.28
2023-03-25T00:01:26.437Z,64.47
2023-03-25T00:02:26.514Z,64.09
2023-03-25T00:03:26.594Z,64.47
2023-03-25T00:04:26.484Z,64.09
2023-03-25T00:05:26.443Z,64.47
2023-03-25T00:06:26.417Z,64.37
2023-03-25T00:07:26.428Z,64.47
2023-03-25T00:08:26.421Z,64.47
2023-03-25T00:09:26.430Z,64.37
2023-03-25T00:10:26.415Z,64.47
2023-03-25T00:11:26.424Z,64.47
2023-03-25T00:12:26.417Z,64.47
2023-03-25T00:13:26.408Z,64.37
2023-03-25T00:14:26.390Z,64.56
2023-03-25T00:15:26.423Z,64.56
2023-03-25T00:16:26.427Z,64.56
2023-03-25T00:17:26.413Z,64.56
2023-03-25T00:18:26.396Z,64.56
2023-03-25T00:19:26.409Z,64.66
2023-03-25T00:20:26.430Z,64.56
2023-03-25T00:21:26.394Z,64.56
2023-03-25T00:22:26.369Z,64.56
2023-03-25T00:23:26.374Z,64.47
2023-03-25T00:24:26.367Z,64.37
2023-03-25T00:25:26.381Z,64.56
2023-03-25T00:26:26.376Z,64.28
2023-03-25T00:27:26.366Z,64.18
2023-03-25T00:28:26.361Z,64.09
2023-03-25T00:29:26.375Z,63.99
2023-03-25T00:30:26.366Z,64.66
2023-03-25T00:31:26.363Z,64.28
2023-03-25T00:32:26.373Z,64.37
2023-03-25T00:33:26.368Z,64.05
2023-03-25T00:34:26.340Z,64.66
2023-03-25T00:35:26.370Z,64.28
2023-03-25T00:36:26.347Z,64.09
2023-03-25T00:37:26.341Z,64.25
2023-03-25T00:38:26.333Z,64.34
2023-03-25T00:39:26.337Z,63.99
2023-03-25T00:40:26.312Z,64.25
2023-03-25T00:41:26.320Z,64.09
2023-03-25T00:42:26.636Z,64.28
2023-03-25T00:43:26.311Z,64.28
2023-03-25T00:44:26.321Z,64.18
2023-03-25T00:45:26.307Z,64.28
2023-03-25T00:46:26.311Z,64.18
2023-03-25T00:47:26.318Z,64.37
2023-03-25T00:48:26.298Z,64.56
2023-03-25T00:49:26.314Z,64.56
2023-03-25T00:50:26.296Z,64.56
2023-03-25T00:51:26.291Z,64.56
2023-03-25T00:52:26.320Z,64.37
2023-03-25T00:53:26.277Z,64.37
2023-03-25T00:54:26.289Z,64.56
2023-03-25T00:55:26.289Z,64.37
2023-03-25T00:56:26.266Z,64.28
2023-03-25T00:57:26.279Z,64.34
2023-03-25T00:58:26.271Z,64.28
2023-03-25T00:59:26.286Z,64.28
2023-03-25T01:00:26.271Z,64.18
2023-03-25T01:01:26.362Z,64.18
2023-03-25T01:02:26.299Z,63.99
2023-03-25T01:03:26.415Z,63.89
2023-03-25T01:04:26.246Z,63.99
2023-03-25T01:05:26.244Z,63.99
2023-03-25T01:06:26.246Z,63.89
2023-03-25T01:07:26.245Z,63.89
2023-03-25T01:08:26.293Z,63.89
2023-03-25T01:09:26.235Z,63.99
2023-03-25T01:10:26.237Z,63.89
2023-03-25T01:11:26.228Z,63.99
2023-03-25T01:12:26.230Z,64.05
2023-03-25T01:13:26.223Z,63.76
2023-03-25T01:14:26.217Z,63.76
2023-03-25T01:15:26.225Z,64.09
2023-03-25T01:16:26.225Z,64.09
2023-03-25T01:17:26.243Z,63.89
2023-03-25T01:18:26.205Z,63.89
2023-03-25T01:19:26.231Z,63.89
2023-03-25T01:20:26.209Z,63.60
2023-03-25T01:21:26.225Z,63.41
2023-03-25T01:22:26.204Z,63.67
2023-03-25T01:23:26.204Z,63.51
2023-03-25T01:24:26.224Z,63.99
2023-03-25T01:25:26.177Z,63.51
2023-03-25T01:26:26.195Z,63.79
2023-03-25T01:27:26.193Z,63.79
2023-03-25T01:28:26.172Z,63.60
2023-03-25T01:29:26.199Z,63.67
2023-03-25T01:30:26.167Z,63.79
2023-03-25T01:31:26.236Z,63.86
2023-03-25T01:32:26.177Z,63.70
2023-03-25T01:33:26.162Z,63.60
2023-03-25T01:34:26.169Z,63.60
2023-03-25T01:35:26.187Z,63.60
2023-03-25T01:36:26.144Z,63.57
2023-03-25T01:37:26.152Z,63.48
2023-03-25T01:38:26.149Z,63.60
2023-03-25T01:39:26.144Z,63.89
2023-03-25T01:40:26.179Z,63.89
2023-03-25T01:41:29.230Z,63.48
2023-03-25T01:42:26.130Z,63.70
2023-03-25T01:43:26.147Z,63.89
2023-03-25T01:44:26.125Z,63.86
2023-03-25T01:45:26.125Z,63.57
2023-03-25T01:46:26.195Z,63.70
2023-03-25T01:47:26.163Z,63.67
2023-03-25T01:48:26.127Z,63.76
2023-03-25T01:49:26.120Z,63.76
2023-03-25T01:50:26.106Z,63.79
2023-03-25T01:51:26.119Z,63.79
2023-03-25T01:52:26.163Z,63.67
2023-03-25T01:53:26.120Z,63.70
2023-03-25T01:54:26.111Z,63.60
2023-03-25T01:55:26.113Z,63.67
2023-03-25T01:56:26.143Z,63.57
2023-03-25T01:57:26.202Z,63.86
2023-03-25T01:58:26.097Z,63.96
2023-03-25T01:59:26.088Z,63.89
2023-03-25T02:00:26.082Z,63.86
2023-03-25T02:01:26.092Z,63.76
2023-03-25T02:02:26.117Z,63.86
2023-03-25T02:03:26.120Z,63.76
2023-03-25T02:04:26.089Z,63.57
2023-03-25T02:05:26.069Z,63.67
2023-03-25T02:06:26.055Z,63.67
2023-03-25T02:07:26.082Z,63.57
2023-03-25T02:08:26.074Z,63.76
2023-03-25T02:09:26.078Z,63.67
2023-03-25T02:10:26.067Z,63.57
2023-03-25T02:11:26.044Z,63.38
2023-03-25T02:12:26.061Z,63.48
2023-03-25T02:13:26.061Z,63.57
2023-03-25T02:14:26.051Z,63.48
2023-03-25T02:15:26.064Z,63.57
2023-03-25T02:16:26.050Z,63.57
2023-03-25T02:17:26.049Z,63.67
2023-03-25T02:18:26.043Z,63.57
2023-03-25T02:19:26.046Z,63.38
2023-03-25T02:20:26.017Z,63.48
2023-03-25T02:21:26.014Z,63.48
2023-03-25T02:22:26.009Z,63.48
2023-03-25T02:23:26.034Z,63.48
2023-03-25T02:24:26.017Z,63.28
2023-03-25T02:25:26.012Z,63.28
2023-03-25T02:26:25.990Z,63.38
2023-03-25T02:27:26.010Z,63.38
2023-03-25T02:28:26.227Z,63.48
2023-03-25T02:29:25.998Z,63.57
2023-03-25T02:30:25.995Z,63.48
2023-03-25T02:31:26.026Z,63.57
2023-03-25T02:32:25.983Z,63.48
2023-03-25T02:33:25.996Z,63.48
2023-03-25T02:34:25.967Z,63.48
2023-03-25T02:35:26.007Z,63.57
2023-03-25T02:36:25.962Z,63.48
2023-03-25T02:37:25.979Z,63.76
2023-03-25T02:38:25.964Z,63.57
2023-03-25T02:39:25.956Z,63.48
2023-03-25T02:40:25.961Z,63.48
2023-03-25T02:41:25.964Z,63.67
2023-03-25T02:42:25.966Z,63.86
2023-03-25T02:43:25.946Z,63.57
2023-03-25T02:44:25.994Z,63.86
2023-03-25T02:45:25.956Z,63.57
2023-03-25T02:46:25.965Z,63.86
2023-03-25T02:47:25.989Z,63.86
2023-03-25T02:48:25.931Z,63.76
2023-03-25T02:49:25.930Z,63.57
2023-03-25T02:50:25.928Z,63.57
2023-03-25T02:51:25.940Z,63.67
2023-03-25T02:52:25.923Z,63.86
2023-03-25T02:53:25.931Z,63.86
2023-03-25T02:54:25.926Z,63.86
2023-03-25T02:55:25.919Z,63.86
2023-03-25T02:56:25.927Z,63.76
2023-03-25T02:57:25.915Z,63.57
2023-03-25T02:58:25.911Z,63.57
2023-03-25T02:59:25.912Z,63.09
2023-03-25T03:00:25.924Z,63.57
2023-03-25T03:01:25.899Z,63.57
2023-03-25T03:02:26.010Z,63.67
2023-03-25T03:03:25.909Z,63.48
2023-03-25T03:04:25.893Z,63.67
2023-03-25T03:05:25.894Z,63.48
2023-03-25T03:06:25.882Z,63.48
2023-03-25T03:07:25.896Z,63.19
2023-03-25T03:08:25.861Z,63.48
2023-03-25T03:09:25.861Z,62.99
2023-03-25T03:10:25.856Z,63.48
2023-03-25T03:11:25.878Z,63.09
2023-03-25T03:12:25.850Z,63.09
2023-03-25T03:13:25.850Z,63.28
2023-03-25T03:14:25.847Z,63.28
2023-03-25T03:15:25.868Z,62.99
2023-03-25T03:16:25.893Z,63.19
2023-03-25T03:17:25.899Z,63.28
2023-03-25T03:18:25.895Z,63.19
2023-03-25T03:19:25.847Z,63.19
2023-03-25T03:20:25.843Z,63.19
2023-03-25T03:21:25.851Z,63.19
2023-03-25T03:22:25.949Z,63.19
2023-03-25T03:23:25.824Z,63.09
2023-03-25T03:24:25.825Z,63.28
2023-03-25T03:25:25.835Z,63.38
2023-03-25T03:26:25.828Z,63.38
2023-03-25T03:27:25.831Z,63.19
2023-03-25T03:28:25.808Z,63.38
2023-03-25T03:29:25.804Z,63.19
2023-03-25T03:30:25.812Z,63.48
2023-03-25T03:31:59.807Z,63.57
2023-03-25T03:32:25.916Z,63.48
2023-03-25T03:33:25.792Z,63.48
2023-03-25T03:34:25.791Z,63.38
2023-03-25T03:35:25.810Z,63.38
2023-03-25T03:36:25.808Z,63.19
2023-03-25T03:37:25.781Z,63.19
2023-03-25T03:38:25.779Z,63.38
2023-03-25T03:39:25.775Z,63.38
2023-03-25T03:40:25.781Z,63.09
2023-03-25T03:41:25.774Z,63.19
2023-03-25T03:42:25.792Z,63.38
2023-03-25T03:43:25.758Z,63.38
2023-03-25T03:44:25.760Z,63.19
2023-03-25T03:45:25.763Z,63.19
2023-03-25T03:46:25.800Z,63.38
2023-03-25T03:47:25.753Z,63.09
2023-03-25T03:48:25.781Z,63.38
2023-03-25T03:49:25.762Z,63.19
2023-03-25T03:50:25.746Z,63.09
2023-03-25T03:51:25.748Z,62.99
2023-03-25T03:52:25.753Z,63.28
2023-03-25T03:53:25.754Z,63.09
2023-03-25T03:54:25.725Z,63.09
2023-03-25T03:55:25.725Z,63.09
2023-03-25T03:56:25.745Z,63.19
2023-03-25T03:57:25.708Z,63.19
2023-03-25T03:58:25.725Z,62.99
2023-03-25T03:59:25.724Z,63.09
2023-03-25T04:00:25.714Z,63.19
2023-03-25T04:01:25.704Z,63.19
2023-03-25T04:02:25.831Z,62.99
2023-03-25T04:03:25.860Z,62.99
2023-03-25T04:04:25.729Z,62.99
2023-03-25T04:05:25.698Z,63.09
2023-03-25T04:06:25.701Z,62.99
2023-03-25T04:07:25.681Z,62.99
2023-03-25T04:08:25.692Z,62.99
2023-03-25T04:09:25.685Z,63.09
2023-03-25T04:10:25.671Z,63.28
2023-03-25T04:11:25.669Z,63.28
2023-03-25T04:12:25.687Z,63.28
2023-03-25T04:13:25.666Z,63.19
2023-03-25T04:14:25.664Z,63.19
2023-03-25T04:15:25.671Z,62.81
2023-03-25T04:16:25.738Z,62.81
2023-03-25T04:17:25.706Z,62.81
2023-03-25T04:18:28.281Z,62.99
2023-03-25T04:19:25.649Z,63.19
2023-03-25T04:20:25.689Z,62.81
2023-03-25T04:21:25.656Z,62.90
2023-03-25T04:22:25.633Z,63.28
2023-03-25T04:23:25.636Z,63.09
2023-03-25T04:24:25.644Z,62.81
2023-03-25T04:25:25.627Z,63.19
2023-03-25T04:26:25.637Z,62.99
2023-03-25T04:27:25.613Z,63.28
2023-03-25T04:28:25.619Z,63.09
2023-03-25T04:29:25.618Z,63.19
2023-03-25T04:30:25.618Z,63.09
2023-03-25T04:31:25.635Z,63.19
2023-03-25T04:32:25.633Z,63.09
2023-03-25T04:33:25.616Z,63.19
2023-03-25T04:34:25.725Z,62.99
2023-03-25T04:35:25.588Z,62.99
2023-03-25T04:36:25.629Z,62.99
2023-03-25T04:37:25.607Z,62.99
2023-03-25T04:38:25.586Z,62.99
2023-03-25T04:39:25.640Z,62.99
2023-03-25T04:40:25.577Z,63.19
2023-03-25T04:41:25.607Z,63.09
2023-03-25T04:42:25.594Z,62.52
2023-03-25T04:43:25.569Z,62.90
2023-03-25T04:44:25.578Z,63.19
2023-03-25T04:45:25.563Z,62.99
2023-03-25T04:46:25.607Z,62.81
2023-03-25T04:47:25.596Z,62.90
2023-03-25T04:48:25.564Z,62.90
2023-03-25T04:49:25.542Z,62.71
2023-03-25T04:50:25.553Z,62.90
2023-03-25T04:51:25.551Z,62.99
2023-03-25T04:52:25.576Z,62.71
2023-03-25T04:53:25.529Z,62.81
2023-03-25T04:54:25.545Z,62.90
2023-03-25T04:55:25.534Z,62.81
2023-03-25T04:56:25.531Z,62.71
2023-03-25T04:57:25.526Z,62.52
2023-03-25T04:58:25.542Z,62.42
2023-03-25T04:59:25.522Z,62.52
2023-03-25T05:00:25.553Z,62.52
2023-03-25T05:01:25.612Z,62.52
2023-03-25T05:02:25.528Z,62.32
2023-03-25T05:03:25.503Z,62.61
2023-03-25T05:04:25.554Z,62.52
2023-03-25T05:05:25.490Z,62.71
2023-03-25T05:06:26.314Z,62.52
2023-03-25T05:07:25.493Z,62.61
2023-03-25T05:08:25.510Z,63.09
2023-03-25T05:09:25.489Z,62.52
2023-03-25T05:10:25.500Z,62.90
2023-03-25T05:11:25.481Z,62.61
2023-03-25T05:12:25.492Z,62.42
2023-03-25T05:13:25.461Z,62.61
2023-03-25T05:14:25.466Z,62.42
2023-03-25T05:15:25.467Z,62.52
2023-03-25T05:16:25.526Z,62.71
2023-03-25T05:17:25.516Z,62.81
2023-03-25T05:18:25.470Z,62.81
2023-03-25T05:19:25.441Z,62.71
2023-03-25T05:20:25.452Z,62.71
2023-03-25T05:21:25.436Z,62.81
2023-03-25T05:22:25.452Z,62.61
2023-03-25T05:23:25.454Z,62.71
2023-03-25T05:24:25.449Z,62.61
2023-03-25T05:25:25.478Z,62.71
2023-03-25T05:26:25.482Z,62.61
2023-03-25T05:27:25.430Z,62.71
2023-03-25T05:28:25.425Z,62.52
2023-03-25T05:29:25.419Z,62.71
2023-03-25T05:30:25.419Z,62.71
2023-03-25T05:31:25.442Z,63.09
2023-03-25T05:32:25.474Z,62.61
2023-03-25T05:33:25.413Z,62.71
2023-03-25T05:34:25.412Z,62.71
2023-03-25T05:35:25.439Z,62.81
2023-03-25T05:36:25.401Z,62.81
2023-03-25T05:37:25.390Z,62.81
2023-03-25T05:38:25.403Z,62.90
2023-03-25T05:39:25.392Z,62.71
2023-03-25T05:40:25.423Z,62.81
2023-03-25T05:41:25.379Z,62.71
2023-03-25T05:42:25.382Z,62.81
2023-03-25T05:43:25.370Z,62.81
2023-03-25T05:44:25.358Z,62.71
2023-03-25T05:45:25.350Z,62.81
2023-03-25T05:47:15.849Z,62.04
2023-03-25T05:48:58.282Z,62.71
2023-03-25T05:49:58.267Z,62.81
2023-03-25T05:50:58.281Z,62.81
2023-03-25T05:51:58.267Z,62.81
2023-03-25T05:52:58.278Z,62.90
2023-03-25T05:53:58.271Z,62.81
2023-03-25T05:54:58.249Z,62.81
2023-03-25T05:55:58.271Z,62.71
2023-03-25T05:56:58.295Z,62.71
2023-03-25T05:57:58.250Z,62.61
2023-03-25T05:58:58.236Z,62.81
2023-03-25T05:59:58.227Z,62.90
2023-03-25T06:00:58.223Z,62.71
2023-03-25T06:01:58.258Z,62.42
2023-03-25T06:02:58.294Z,62.29
2023-03-25T06:03:58.253Z,62.52
2023-03-25T06:04:58.206Z,62.90
2023-03-25T06:05:58.206Z,62.52
2023-03-25T06:06:58.212Z,62.42
2023-03-25T06:07:58.212Z,62.42
2023-03-25T06:08:58.196Z,62.32
2023-03-25T06:09:58.209Z,62.42
2023-03-25T06:10:58.197Z,62.39
2023-03-25T06:11:58.209Z,62.29
2023-03-25T06:12:58.188Z,62.61
2023-03-25T06:13:58.194Z,62.52
2023-03-25T06:14:58.192Z,62.23
2023-03-25T06:15:58.266Z,62.10
2023-03-25T06:16:58.181Z,62.52
2023-03-25T06:17:58.312Z,62.52
2023-03-25T06:18:58.161Z,62.29
2023-03-25T06:19:58.171Z,62.23
2023-03-25T06:20:58.171Z,62.23
2023-03-25T06:21:58.160Z,62.23
2023-03-25T06:22:58.176Z,62.32
2023-03-25T06:23:58.173Z,62.29
2023-03-25T06:24:58.154Z,62.23
2023-03-25T06:25:58.155Z,62.13
2023-03-25T06:26:58.155Z,62.32
2023-03-25T06:27:58.151Z,62.52
2023-03-25T06:28:58.136Z,62.52
2023-03-25T06:29:58.122Z,62.52
2023-03-25T06:30:58.164Z,62.58
2023-03-25T06:31:58.124Z,62.61
2023-03-25T06:32:58.160Z,62.01
2023-03-25T06:33:58.128Z,61.94
2023-03-25T06:34:58.115Z,62.04
2023-03-25T06:35:58.136Z,62.13
2023-03-25T06:36:58.108Z,62.04
2023-03-25T06:37:58.103Z,61.94
2023-03-25T06:38:58.119Z,61.55
2023-03-25T06:39:58.104Z,62.01
2023-03-25T06:40:58.106Z,61.81
2023-03-25T06:41:58.102Z,61.84
2023-03-25T06:42:58.092Z,61.75
2023-03-25T06:43:58.110Z,61.94
2023-03-25T06:44:58.088Z,61.84
2023-03-25T06:45:58.106Z,61.94
2023-03-25T06:46:58.083Z,62.04
2023-03-25T06:47:58.131Z,62.01
2023-03-25T06:48:58.069Z,62.04
2023-03-25T06:49:58.075Z,61.72
2023-03-25T06:50:58.077Z,62.04
2023-03-25T06:51:58.080Z,61.94
2023-03-25T06:52:58.072Z,62.04
2023-03-25T06:53:58.111Z,61.94
2023-03-25T06:54:58.044Z,61.91
2023-03-25T06:55:58.059Z,61.94
2023-03-25T06:56:58.063Z,61.94
2023-03-25T06:57:58.045Z,62.19
2023-03-25T06:58:58.053Z,62.13
2023-03-25T06:59:58.062Z,62.13
2023-03-25T07:00:58.035Z,62.04
2023-03-25T07:01:58.034Z,61.81
2023-03-25T07:02:58.070Z,61.72
2023-03-25T07:03:58.024Z,61.72
2023-03-25T07:04:58.069Z,61.72
2023-03-25T07:05:58.007Z,62.04
2023-03-25T07:06:58.056Z,62.04
2023-03-25T07:07:58.005Z,61.91
2023-03-25T07:08:58.019Z,61.91
2023-03-25T07:09:57.993Z,61.94
2023-03-25T07:10:58.015Z,61.94
2023-03-25T07:11:58.012Z,61.52
2023-03-25T07:12:57.998Z,61.62
2023-03-25T07:13:58.012Z,61.81
2023-03-25T07:14:57.991Z,61.52
2023-03-25T07:15:58.090Z,61.81
2023-03-25T07:16:57.989Z,61.46
2023-03-25T07:17:58.023Z,61.62
2023-03-25T07:18:57.988Z,61.52
2023-03-25T07:19:57.987Z,61.52
2023-03-25T07:20:57.968Z,61.62
2023-03-25T07:21:57.975Z,61.43
2023-03-25T07:22:57.967Z,61.33
2023-03-25T07:23:57.976Z,61.52
2023-03-25T07:24:57.958Z,61.33
2023-03-25T07:25:57.968Z,61.52
2023-03-25T07:26:57.960Z,61.43
2023-03-25T07:27:57.949Z,61.55
2023-03-25T07:28:57.945Z,61.75
2023-03-25T07:29:57.940Z,61.17
2023-03-25T07:30:57.943Z,61.14
2023-03-25T07:31:57.943Z,61.14
2023-03-25T07:32:57.956Z,61.55
2023-03-25T07:33:57.941Z,61.33
2023-03-25T07:34:57.924Z,61.24
2023-03-25T07:35:57.960Z,61.24
2023-03-25T07:36:57.909Z,61.43
2023-03-25T07:37:57.902Z,61.43
2023-03-25T07:38:57.924Z,61.33
2023-03-25T07:39:57.916Z,61.43
2023-03-25T07:40:57.913Z,61.52
2023-03-25T07:41:57.903Z,61.55
2023-03-25T07:42:57.913Z,61.36
2023-03-25T07:43:57.903Z,61.46
2023-03-25T07:44:57.911Z,61.24
2023-03-25T07:45:58.071Z,61.24
2023-03-25T07:46:57.929Z,60.98
2023-03-25T07:47:57.963Z,61.14
2023-03-25T07:48:57.899Z,61.27
2023-03-25T07:49:57.874Z,61.27
2023-03-25T07:50:57.866Z,61.36
2023-03-25T07:51:57.877Z,60.88
2023-03-25T07:52:57.858Z,60.78
2023-03-25T07:54:05.351Z,61.17
2023-03-25T07:54:57.867Z,61.08
2023-03-25T07:55:57.845Z,61.27
2023-03-25T07:56:58.080Z,61.17
2023-03-25T07:57:57.840Z,61.36
2023-03-25T07:58:57.846Z,61.17
2023-03-25T07:59:57.847Z,60.88
2023-03-25T08:00:57.834Z,61.08
2023-03-25T08:01:57.874Z,61.08
2023-03-25T08:02:57.931Z,60.88
2023-03-25T08:03:57.929Z,60.69
2023-03-25T08:04:57.848Z,61.17
2023-03-25T08:05:57.817Z,60.78
2023-03-25T08:06:57.821Z,60.50
2023-03-25T08:07:57.828Z,60.40
2023-03-25T08:08:57.813Z,60.40
2023-03-25T08:09:57.821Z,60.31
2023-03-25T08:10:57.803Z,60.11
2023-03-25T08:11:57.834Z,60.05
2023-03-25T08:12:57.806Z,60.34
2023-03-25T08:13:57.807Z,60.63
2023-03-25T08:14:57.796Z,60.53
2023-03-25T08:15:57.801Z,60.53
2023-03-25T08:16:57.826Z,60.24
2023-03-25T08:17:57.909Z,60.14
2023-03-25T08:18:57.781Z,60.34
2023-03-25T08:19:57.798Z,60.24
2023-03-25T08:20:57.783Z,60.43
2023-03-25T08:21:57.776Z,60.34
2023-03-25T08:22:57.772Z,60.24
2023-03-25T08:23:57.777Z,60.05
2023-03-25T08:24:57.775Z,59.95
2023-03-25T08:25:57.769Z,59.66
2023-03-25T08:26:57.761Z,59.66
2023-03-25T08:27:57.751Z,59.76
2023-03-25T08:28:57.789Z,60.24
2023-03-25T08:29:57.798Z,60.14
2023-03-25T08:30:57.769Z,59.66
2023-03-25T08:31:57.810Z,59.47
2023-03-25T08:32:57.793Z,59.86
2023-03-25T08:33:57.744Z,59.47
2023-03-25T08:34:57.762Z,59.89
2023-03-25T08:35:57.888Z,59.60
2023-03-25T08:36:57.732Z,59.60
2023-03-25T08:37:57.740Z,59.31
2023-03-25T08:38:57.751Z,59.12
2023-03-25T08:39:57.717Z,58.92
2023-03-25T08:40:57.730Z,59.02
2023-03-25T08:41:57.732Z,58.92
2023-03-25T08:42:57.735Z,59.50
2023-03-25T08:43:57.722Z,59.02
2023-03-25T08:44:57.713Z,59.22
2023-03-25T08:45:57.766Z,59.02
2023-03-25T08:46:57.703Z,59.02
2023-03-25T08:47:57.713Z,59.41
2023-03-25T08:48:57.700Z,59.31
2023-03-25T08:49:57.707Z,58.92
2023-03-25T08:50:57.704Z,59.05
2023-03-25T08:51:57.800Z,59.05
2023-03-25T08:52:57.733Z,59.31
2023-03-25T08:53:57.697Z,59.31
2023-03-25T08:54:57.712Z,59.34
2023-03-25T08:55:57.699Z,59.15
2023-03-25T08:56:57.755Z,58.95
2023-03-25T08:57:57.712Z,58.95
2023-03-25T08:58:57.689Z,59.34
2023-03-25T08:59:57.676Z,59.05
2023-03-25T09:00:57.683Z,58.95
2023-03-25T09:02:00.082Z,59.24
2023-03-25T09:02:57.777Z,59.34
2023-03-25T09:03:57.685Z,58.95
2023-03-25T09:04:57.695Z,59.05
2023-03-25T09:05:57.692Z,59.05
2023-03-25T09:07:11.444Z,59.15
2023-03-25T09:07:57.706Z,59.24
2023-03-25T09:08:57.673Z,58.95
2023-03-25T09:09:57.656Z,59.15
2023-03-25T09:10:57.679Z,59.12
2023-03-25T09:11:57.680Z,59.41
2023-03-25T09:12:57.677Z,59.12
2023-03-25T09:13:57.672Z,59.31
2023-03-25T09:14:57.652Z,59.50
2023-03-25T09:15:57.691Z,59.92
2023-03-25T09:16:57.665Z,59.79
2023-03-25T09:17:57.709Z,59.82
2023-03-25T09:18:57.640Z,59.82
2023-03-25T09:19:58.872Z,59.79
2023-03-25T09:20:57.650Z,59.34
2023-03-25T09:21:57.640Z,59.60
2023-03-25T09:22:57.643Z,59.60
2023-03-25T09:23:57.662Z,59.69
2023-03-25T09:24:57.631Z,59.99
2023-03-25T09:25:57.635Z,59.79
2023-03-25T09:26:57.636Z,59.89
2023-03-25T09:27:57.635Z,59.79
2023-03-25T09:28:57.646Z,60.27
2023-03-25T09:29:57.628Z,60.27
2023-03-25T09:30:57.652Z,60.27
2023-03-25T09:31:57.620Z,60.27
2023-03-25T09:32:57.676Z,60.37
2023-03-25T09:33:57.636Z,60.17
2023-03-25T09:34:57.605Z,60.27
2023-03-25T09:35:57.657Z,60.17
2023-03-25T09:36:57.659Z,60.17
2023-03-25T09:37:57.606Z,60.17
2023-03-25T09:38:57.623Z,60.27
2023-03-25T09:39:57.617Z,60.37
2023-03-25T09:40:57.618Z,60.56
2023-03-25T09:41:57.589Z,60.66
2023-03-25T09:42:57.605Z,60.46
2023-03-25T09:43:57.586Z,60.37
2023-03-25T09:44:57.602Z,60.27
2023-03-25T09:45:57.588Z,60.27
2023-03-25T09:46:57.624Z,60.37
2023-03-25T09:47:57.609Z,60.17
2023-03-25T09:48:57.573Z,60.17
2023-03-25T09:50:00.624Z,60.46
2023-03-25T09:50:57.576Z,60.27
2023-03-25T09:51:57.575Z,60.37
2023-03-25T09:52:57.570Z,60.56
2023-03-25T09:53:57.571Z,60.46
2023-03-25T09:54:57.574Z,60.56
2023-03-25T09:55:57.590Z,60.27
2023-03-25T09:56:57.613Z,60.56
2023-03-25T09:57:57.576Z,60.56
2023-03-25T09:58:57.562Z,60.56
2023-03-25T09:59:57.555Z,61.14
2023-03-25T10:00:57.570Z,60.56
2023-03-25T10:01:57.657Z,61.14
2023-03-25T10:02:57.631Z,61.14
2023-03-25T10:03:57.589Z,60.85
2023-03-25T10:04:57.543Z,61.04
2023-03-25T10:05:57.536Z,60.94
2023-03-25T10:06:57.544Z,60.85
2023-03-25T10:07:57.540Z,61.04
2023-03-25T10:08:57.539Z,60.85
2023-03-25T10:09:57.537Z,60.94
2023-03-25T10:10:57.554Z,61.04
2023-03-25T10:11:57.553Z,60.94
2023-03-25T10:12:57.541Z,61.43
2023-03-25T10:13:57.527Z,61.43
2023-03-25T10:14:57.528Z,61.40
2023-03-25T10:15:57.558Z,61.33
2023-03-25T10:16:57.534Z,61.33
2023-03-25T10:17:57.571Z,61.04
2023-03-25T10:18:57.530Z,61.33
2023-03-25T10:19:57.516Z,61.23
2023-03-25T10:20:57.506Z,61.11
2023-03-25T10:21:57.523Z,61.04
2023-03-25T10:22:57.511Z,60.94
2023-03-25T10:23:57.502Z,61.04
2023-03-25T10:24:57.493Z,61.23
2023-03-25T10:25:57.495Z,61.04
2023-03-25T10:26:57.494Z,61.23
2023-03-25T10:27:57.523Z,61.23
2023-03-25T10:28:57.500Z,61.43
2023-03-25T10:29:57.496Z,61.52
2023-03-25T10:30:57.496Z,61.52
2023-03-25T10:31:57.503Z,61.43
2023-03-25T10:32:57.656Z,61.71
2023-03-25T10:33:57.490Z,61.52
2023-03-25T10:34:57.497Z,61.43
2023-03-25T10:35:57.574Z,61.61
2023-03-25T10:36:57.479Z,61.81
2023-03-25T10:37:57.494Z,61.52
2023-03-25T10:38:57.475Z,61.61
2023-03-25T10:39:57.461Z,61.91
2023-03-25T10:40:57.473Z,62.10
2023-03-25T10:41:57.467Z,62.10
2023-03-25T10:42:57.470Z,61.91
2023-03-25T10:43:57.483Z,62.10
2023-03-25T10:44:57.448Z,62.00
2023-03-25T10:45:57.490Z,61.91
2023-03-25T10:46:57.483Z,62.10
2023-03-25T10:47:57.467Z,61.81
2023-03-25T10:48:57.444Z,62.00
2023-03-25T10:49:57.451Z,61.91
2023-03-25T10:50:57.433Z,62.07
2023-03-25T10:51:57.527Z,61.91
2023-03-25T10:52:57.443Z,62.00
2023-03-25T10:53:57.443Z,62.10
2023-03-25T10:54:57.426Z,62.10
2023-03-25T10:55:57.421Z,62.10
2023-03-25T10:56:57.474Z,62.10
2023-03-25T10:57:57.444Z,62.58
2023-03-25T10:58:57.450Z,62.29
2023-03-25T10:59:57.499Z,62.38
2023-03-25T11:00:57.425Z,62.48
2023-03-25T11:01:57.460Z,62.68
2023-03-25T11:02:57.513Z,62.55
2023-03-25T11:03:57.414Z,62.45
2023-03-25T11:04:57.397Z,62.38
2023-03-25T11:05:57.414Z,62.48
2023-03-25T11:06:57.390Z,62.96
2023-03-25T11:07:57.404Z,62.77
2023-03-25T11:08:57.389Z,62.77
2023-03-25T11:09:57.388Z,62.84
2023-03-25T11:10:57.637Z,62.93
2023-03-25T11:11:57.384Z,62.77
2023-03-25T11:12:57.385Z,62.64
2023-03-25T11:13:57.402Z,62.58
2023-03-25T11:14:57.383Z,61.97
2023-03-25T11:15:57.500Z,63.02
2023-03-25T11:16:57.496Z,62.87
2023-03-25T11:17:57.418Z,62.64
2023-03-25T11:18:57.359Z,62.68
2023-03-25T11:19:57.377Z,62.77
2023-03-25T11:20:57.392Z,62.74
2023-03-25T11:21:57.364Z,62.58
2023-03-25T11:22:57.362Z,62.68
2023-03-25T11:23:57.358Z,62.74
2023-03-25T11:24:57.349Z,62.45
2023-03-25T11:25:57.356Z,62.38
2023-03-25T11:26:57.345Z,62.35
2023-03-25T11:27:57.360Z,62.55
2023-03-25T11:28:57.335Z,62.55
2023-03-25T11:29:57.369Z,62.35
2023-03-25T11:30:57.370Z,62.74
2023-03-25T11:31:57.362Z,62.45
2023-03-25T11:32:57.468Z,62.45
2023-03-25T11:33:57.348Z,62.87
2023-03-25T11:34:57.439Z,62.74
2023-03-25T11:35:57.392Z,62.93
2023-03-25T11:36:57.316Z,62.68
2023-03-25T11:37:57.520Z,62.96
2023-03-25T11:38:57.417Z,62.87
2023-03-25T11:39:57.348Z,62.84
2023-03-25T11:40:57.377Z,62.87
2023-03-25T11:41:57.427Z,63.12
2023-03-25T11:42:57.346Z,63.06
2023-03-25T11:43:57.393Z,63.25
2023-03-25T11:44:57.373Z,63.22
2023-03-25T11:45:57.463Z,63.15
2023-03-25T11:46:57.396Z,63.12
2023-03-25T11:47:57.397Z,63.12
2023-03-25T11:48:57.282Z,62.93
2023-03-25T11:49:57.313Z,63.22
2023-03-25T11:50:57.368Z,63.35
2023-03-25T11:51:57.370Z,63.32
2023-03-25T11:52:57.294Z,63.02
2023-03-25T11:53:57.298Z,63.06
2023-03-25T11:54:57.295Z,63.02
2023-03-25T11:55:57.276Z,63.06
2023-03-25T11:56:57.336Z,63.22
2023-03-25T11:57:57.286Z,63.06
2023-03-25T11:58:57.284Z,63.22
2023-03-25T11:59:57.280Z,63.12
2023-03-25T12:00:57.272Z,63.06
2023-03-25T12:01:57.263Z,63.41
2023-03-25T12:02:57.484Z,63.45
2023-03-25T12:03:57.330Z,63.22
2023-03-25T12:04:57.255Z,63.25
2023-03-25T12:05:57.298Z,63.41
2023-03-25T12:06:57.294Z,63.51
2023-03-25T12:07:57.278Z,63.35
2023-03-25T12:08:57.259Z,63.15
2023-03-25T12:09:57.242Z,63.32
2023-03-25T12:10:57.248Z,63.22
2023-03-25T12:11:57.251Z,63.22
2023-03-25T12:12:57.243Z,63.45
2023-03-25T12:13:57.254Z,63.51
2023-03-25T12:14:57.233Z,63.02
2023-03-25T12:15:57.258Z,63.32
2023-03-25T12:16:57.235Z,63.32
2023-03-25T12:17:57.265Z,63.06
2023-03-25T12:18:57.230Z,63.83
2023-03-25T12:19:57.257Z,63.73
2023-03-25T12:20:57.210Z,63.51
2023-03-25T12:21:57.221Z,63.60
2023-03-25T12:22:57.272Z,63.92
2023-03-25T12:23:57.217Z,63.60
2023-03-25T12:24:57.206Z,63.89
2023-03-25T12:25:57.225Z,63.51
2023-03-25T12:26:57.196Z,63.51
2023-03-25T12:27:57.205Z,63.41
2023-03-25T12:28:57.203Z,63.60
2023-03-25T12:29:57.207Z,63.51
2023-03-25T12:30:57.213Z,63.64
2023-03-25T12:31:57.202Z,63.60
2023-03-25T12:32:57.237Z,63.41
2023-03-25T12:33:57.185Z,63.51
2023-03-25T12:34:57.199Z,63.32
2023-03-25T12:35:57.260Z,63.41
2023-03-25T12:36:57.200Z,63.41
2023-03-25T12:37:57.174Z,63.22
2023-03-25T12:38:57.208Z,63.32
2023-03-25T12:39:57.165Z,63.41
2023-03-25T12:40:57.162Z,63.41
2023-03-25T12:41:57.182Z,63.51
2023-03-25T12:42:57.180Z,63.60
2023-03-25T12:43:57.176Z,63.60
2023-03-25T12:44:57.160Z,63.41
2023-03-25T12:45:57.234Z,63.41
2023-03-25T12:46:57.174Z,63.70
2023-03-25T12:47:57.206Z,63.60
2023-03-25T12:48:57.160Z,63.51
2023-03-25T12:49:57.149Z,63.54
2023-03-25T12:50:57.152Z,63.60
2023-03-25T12:51:57.189Z,63.60
2023-03-25T12:52:57.139Z,63.89
2023-03-25T12:53:57.154Z,63.79